sensor_id;sensor_type;location;lat;lon;timestamp;temperature;humidity
63976;DHT22;50167;47.958;21.780;2023-04-15T00:02:16;11.93;66.01
63976;DHT22;50167;47.958;21.780;2023-04-15T00:04:45;12.68;62.63
63976;DHT22;50167;47.958;21.780;2023-04-15T00:07:12;13.04;60.48
63976;DHT22;50167;47.958;21.780;2023-04-15T00:14:12;12.03;57.58
63976;DHT22;50167;47.958;21.780;2023-04-15T00:16:39;10.78;60.03
63976;DHT22;50167;47.958;21.780;2023-04-15T00:19:05;10.04;62.01
63976;DHT22;50167;47.958;21.780;2023-04-15T00:25:32;12.06;64.30
63976;DHT22;50167;47.958;21.780;2023-04-15T00:27:58;12.61;61.26
63976;DHT22;50167;47.958;21.780;2023-04-15T00:30:24;12.96;59.53
63976;DHT22;50167;47.958;21.780;2023-04-15T00:32:51;12.58;56.86
63976;DHT22;50167;47.958;21.780;2023-04-15T00:35:17;11.47;57.68
63976;DHT22;50167;47.958;21.780;2023-04-15T00:37:43;10.51;59.71
63976;DHT22;50167;47.958;21.780;2023-04-15T00:40:12;9.80;61.74
63976;DHT22;50167;47.958;21.780;2023-04-15T00:42:38;10.18;67.10
63976;DHT22;50167;47.958;21.780;2023-04-15T00:45:06;11.44;65.77
63976;DHT22;50167;47.958;21.780;2023-04-15T00:47:35;12.21;63.38
63976;DHT22;50167;47.958;21.780;2023-04-15T00:50:02;12.76;61.43
63976;DHT22;50167;47.958;21.780;2023-04-15T00:52:28;13.14;59.88
63976;DHT22;50167;47.958;21.780;2023-04-15T00:54:54;13.47;58.33
63976;DHT22;50167;47.958;21.780;2023-04-15T00:57:21;12.89;55.66
63976;DHT22;50167;47.958;21.780;2023-04-15T00:59:48;11.72;57.14
63976;DHT22;50167;47.958;21.780;2023-04-15T01:02:14;10.82;59.19
63976;DHT22;50167;47.958;21.780;2023-04-15T01:04:41;10.07;61.51
63976;DHT22;50167;47.958;21.780;2023-04-15T01:07:08;10.39;66.75
63976;DHT22;50167;47.958;21.780;2023-04-15T01:09:34;11.61;66.47
63976;DHT22;50167;47.958;21.780;2023-04-15T01:12:04;12.41;63.65
63976;DHT22;50167;47.958;21.780;2023-04-15T01:14:30;12.82;62.16
63976;DHT22;50167;47.958;21.780;2023-04-15T01:16:57;13.09;61.01
63976;DHT22;50167;47.958;21.780;2023-04-15T01:19:23;13.26;60.14
63976;DHT22;50167;47.958;21.780;2023-04-15T01:21:50;13.47;59.51
63976;DHT22;50167;47.958;21.780;2023-04-15T01:24:17;13.07;57.46
63976;DHT22;50167;47.958;21.780;2023-04-15T01:26:44;11.94;58.69
63976;DHT22;50167;47.958;21.780;2023-04-15T01:29:12;11.02;60.86
63976;DHT22;50167;47.958;21.780;2023-04-15T01:31:38;10.29;62.60
63976;DHT22;50167;47.958;21.780;2023-04-15T01:34:05;10.65;67.64
63976;DHT22;50167;47.958;21.780;2023-04-15T01:36:32;11.96;66.99
63976;DHT22;50167;47.958;21.780;2023-04-15T01:38:59;12.79;63.78
63976;DHT22;50167;47.958;21.780;2023-04-15T01:41:26;13.34;61.64
63976;DHT22;50167;47.958;21.780;2023-04-15T01:43:53;13.75;60.03
63976;DHT22;50167;47.958;21.780;2023-04-15T01:46:20;14.03;58.88
63976;DHT22;50167;47.958;21.780;2023-04-15T01:48:46;13.48;56.38
63976;DHT22;50167;47.958;21.780;2023-04-15T01:51:13;12.30;57.47
63976;DHT22;50167;47.958;21.780;2023-04-15T01:53:39;11.28;59.95
63976;DHT22;50167;47.958;21.780;2023-04-15T01:56:06;10.55;62.06
63976;DHT22;50167;47.958;21.780;2023-04-15T01:58:32;10.94;67.49
63976;DHT22;50167;47.958;21.780;2023-04-15T02:00:59;12.23;66.34
63976;DHT22;50167;47.958;21.780;2023-04-15T02:03:25;13.02;63.40
63976;DHT22;50167;47.958;21.780;2023-04-15T02:05:52;13.43;61.62
63976;DHT22;50167;47.958;21.780;2023-04-15T02:08:18;13.77;60.45
63976;DHT22;50167;47.958;21.780;2023-04-15T02:10:44;13.98;59.99
63976;DHT22;50167;47.958;21.780;2023-04-15T02:13:11;14.15;59.65
63976;DHT22;50167;47.958;21.780;2023-04-15T02:15:37;13.74;57.98
63976;DHT22;50167;47.958;21.780;2023-04-15T02:18:03;12.62;59.59
63976;DHT22;50167;47.958;21.780;2023-04-15T02:20:30;11.73;61.10
63976;DHT22;50167;47.958;21.780;2023-04-15T02:22:57;11.03;63.28
63976;DHT22;50167;47.958;21.780;2023-04-15T02:25:23;11.48;68.49
63976;DHT22;50167;47.958;21.780;2023-04-15T02:27:49;12.71;66.55
63976;DHT22;50167;47.958;21.780;2023-04-15T02:30:15;13.38;63.87
63976;DHT22;50167;47.958;21.780;2023-04-15T02:32:42;13.79;62.41
63976;DHT22;50167;47.958;21.780;2023-04-15T02:35:09;14.21;61.09
63976;DHT22;50167;47.958;21.780;2023-04-15T02:37:55;14.57;59.17
63976;DHT22;50167;47.958;21.780;2023-04-15T02:40:21;13.96;57.49
63976;DHT22;50167;47.958;21.780;2023-04-15T02:42:48;12.86;59.42
63976;DHT22;50167;47.958;21.780;2023-04-15T02:45:14;12.01;61.59
63976;DHT22;50167;47.958;21.780;2023-04-15T02:47:41;11.37;63.37
63976;DHT22;50167;47.958;21.780;2023-04-15T02:50:11;11.80;67.91
63976;DHT22;50167;47.958;21.780;2023-04-15T02:52:40;12.93;66.35
63976;DHT22;50167;47.958;21.780;2023-04-15T02:55:09;13.62;63.64
63976;DHT22;50167;47.958;21.780;2023-04-15T02:57:35;14.00;62.01
63976;DHT22;50167;47.958;21.780;2023-04-15T03:00:07;14.29;61.02
63976;DHT22;50167;47.958;21.780;2023-04-15T03:02:37;14.58;60.02
63976;DHT22;50167;47.958;21.780;2023-04-15T03:05:04;14.88;59.04
63976;DHT22;50167;47.958;21.780;2023-04-15T03:07:31;14.40;56.95
63976;DHT22;50167;47.958;21.780;2023-04-15T03:09:57;13.34;58.55
63976;DHT22;50167;47.958;21.780;2023-04-15T03:12:24;12.45;60.91
63976;DHT22;50167;47.958;21.780;2023-04-15T03:14:50;11.83;62.75
63976;DHT22;50167;47.958;21.780;2023-04-15T03:17:16;12.17;66.76
63976;DHT22;50167;47.958;21.780;2023-04-15T03:19:43;13.20;65.60
63976;DHT22;50167;47.958;21.780;2023-04-15T03:22:09;13.91;63.02
63976;DHT22;50167;47.958;21.780;2023-04-15T03:24:36;14.33;61.84
63976;DHT22;50167;47.958;21.780;2023-04-15T03:27:02;14.78;60.48
63976;DHT22;50167;47.958;21.780;2023-04-15T03:29:28;15.07;59.26
63976;DHT22;50167;47.958;21.780;2023-04-15T03:31:54;14.60;57.18
63976;DHT22;50167;47.958;21.780;2023-04-15T03:34:21;13.45;58.73
63976;DHT22;50167;47.958;21.780;2023-04-15T03:36:47;12.54;60.89
63976;DHT22;50167;47.958;21.780;2023-04-15T03:39:13;11.83;63.04
63976;DHT22;50167;47.958;21.780;2023-04-15T03:41:40;12.20;67.47
63976;DHT22;50167;47.958;21.780;2023-04-15T03:44:06;13.20;65.84
63976;DHT22;50167;47.958;21.780;2023-04-15T03:46:32;13.79;63.71
63976;DHT22;50167;47.958;21.780;2023-04-15T03:48:58;14.17;62.09
63976;DHT22;50167;47.958;21.780;2023-04-15T03:51:27;14.44;61.34
63976;DHT22;50167;47.958;21.780;2023-04-15T03:53:53;14.70;60.21
63976;DHT22;50167;47.958;21.780;2023-04-15T03:56:22;14.88;59.47
63976;DHT22;50167;47.958;21.780;2023-04-15T03:58:48;14.44;57.83
63976;DHT22;50167;47.958;21.780;2023-04-15T04:01:14;13.40;59.32
63976;DHT22;50167;47.958;21.780;2023-04-15T04:03:41;12.58;61.63
63976;DHT22;50167;47.958;21.780;2023-04-15T04:06:07;11.90;63.38
63976;DHT22;50167;47.958;21.780;2023-04-15T04:08:33;12.41;67.77
63976;DHT22;50167;47.958;21.780;2023-04-15T04:10:59;13.50;65.79
63976;DHT22;50167;47.958;21.780;2023-04-15T04:13:26;14.19;63.36
63976;DHT22;50167;47.958;21.780;2023-04-15T04:15:52;14.56;61.35
63976;DHT22;50167;47.958;21.780;2023-04-15T04:18:18;14.85;60.46
63976;DHT22;50167;47.958;21.780;2023-04-15T04:20:45;15.09;59.71
63976;DHT22;50167;47.958;21.780;2023-04-15T04:23:11;14.82;57.79
63976;DHT22;50167;47.958;21.780;2023-04-15T04:25:38;13.82;58.78
63976;DHT22;50167;47.958;21.780;2023-04-15T04:28:04;13.03;60.35
63976;DHT22;50167;47.958;21.780;2023-04-15T04:30:30;12.38;62.34
63976;DHT22;50167;47.958;21.780;2023-04-15T04:32:56;12.78;66.41
63976;DHT22;50167;47.958;21.780;2023-04-15T04:35:22;13.89;64.69
63976;DHT22;50167;47.958;21.780;2023-04-15T04:37:49;14.57;62.19
63976;DHT22;50167;47.958;21.780;2023-04-15T04:40:15;14.99;60.48
63976;DHT22;50167;47.958;21.780;2023-04-15T04:42:42;15.33;59.50
63976;DHT22;50167;47.958;21.780;2023-04-15T04:45:08;15.03;57.34
63976;DHT22;50167;47.958;21.780;2023-04-15T04:47:35;14.08;58.67
63976;DHT22;50167;47.958;21.780;2023-04-15T04:50:01;13.23;60.54
63976;DHT22;50167;47.958;21.780;2023-04-15T04:52:28;12.62;62.49
63976;DHT22;50167;47.958;21.780;2023-04-15T04:54:54;12.98;66.28
63976;DHT22;50167;47.958;21.780;2023-04-15T04:57:20;14.15;64.27
63976;DHT22;50167;47.958;21.780;2023-04-15T04:59:47;14.77;61.84
63976;DHT22;50167;47.958;21.780;2023-04-15T05:02:13;15.16;60.60
63976;DHT22;50167;47.958;21.780;2023-04-15T05:04:40;15.51;59.29
63976;DHT22;50167;47.958;21.780;2023-04-15T05:07:06;15.16;57.53
63976;DHT22;50167;47.958;21.780;2023-04-15T05:09:33;14.19;58.95
63976;DHT22;50167;47.958;21.780;2023-04-15T05:12:01;13.35;60.96
63976;DHT22;50167;47.958;21.780;2023-04-15T05:14:27;12.78;62.42
63976;DHT22;50167;47.958;21.780;2023-04-15T05:16:53;13.19;66.32
63976;DHT22;50167;47.958;21.780;2023-04-15T05:19:20;14.30;64.47
63976;DHT22;50167;47.958;21.780;2023-04-15T05:21:46;14.85;62.31
63976;DHT22;50167;47.958;21.780;2023-04-15T05:24:12;15.32;61.20
63976;DHT22;50167;47.958;21.780;2023-04-15T05:26:39;15.74;59.74
63976;DHT22;50167;47.958;21.780;2023-04-15T05:29:30;15.54;57.90
63976;DHT22;50167;47.958;21.780;2023-04-15T05:31:56;14.43;55.27
63976;DHT22;50167;47.958;21.780;2023-04-15T05:34:23;13.70;61.12
63976;DHT22;50167;47.958;21.780;2023-04-15T05:36:49;13.20;62.66
63976;DHT22;50167;47.958;21.780;2023-04-15T05:39:15;13.72;66.04
63976;DHT22;50167;47.958;21.780;2023-04-15T05:41:43;14.81;63.92
63976;DHT22;50167;47.958;21.780;2023-04-15T05:44:09;15.49;61.64
63976;DHT22;50167;47.958;21.780;2023-04-15T05:46:35;15.92;59.95
63976;DHT22;50167;47.958;21.780;2023-04-15T05:49:02;16.19;59.11
63976;DHT22;50167;47.958;21.780;2023-04-15T05:51:28;15.91;58.59
63976;DHT22;50167;47.958;21.780;2023-04-15T05:53:54;15.10;61.18
63976;DHT22;50167;47.958;21.780;2023-04-15T05:56:20;14.57;61.04
63976;DHT22;50167;47.958;21.780;2023-04-15T05:58:47;14.98;63.70
63976;DHT22;50167;47.958;21.780;2023-04-15T06:01:13;15.96;61.82
63976;DHT22;50167;47.958;21.780;2023-04-15T06:03:40;16.54;59.71
63976;DHT22;50167;47.958;21.780;2023-04-15T06:06:06;16.40;58.69
63976;DHT22;50167;47.958;21.780;2023-04-15T06:08:32;15.53;60.19
63976;DHT22;50167;47.958;21.780;2023-04-15T06:10:58;14.77;61.63
63976;DHT22;50167;47.958;21.780;2023-04-15T06:13:25;14.21;62.58
63976;DHT22;50167;47.958;21.780;2023-04-15T06:15:52;14.67;64.46
63976;DHT22;50167;47.958;21.780;2023-04-15T06:18:18;15.75;62.81
63976;DHT22;50167;47.958;21.780;2023-04-15T06:20:45;16.35;60.82
63976;DHT22;50167;47.958;21.780;2023-04-15T06:23:11;16.70;59.41
63976;DHT22;50167;47.958;21.780;2023-04-15T06:25:37;16.30;57.65
63976;DHT22;50167;47.958;21.780;2023-04-15T06:28:03;15.36;59.83
63976;DHT22;50167;47.958;21.780;2023-04-15T06:30:30;14.65;60.62
63976;DHT22;50167;47.958;21.780;2023-04-15T06:32:56;14.13;62.06
63976;DHT22;50167;47.958;21.780;2023-04-15T06:35:22;14.68;64.28
63976;DHT22;50167;47.958;21.780;2023-04-15T06:37:49;15.91;61.83
63976;DHT22;50167;47.958;21.780;2023-04-15T06:40:15;16.54;59.28
63976;DHT22;50167;47.958;21.780;2023-04-15T06:42:41;16.26;57.11
63976;DHT22;50167;47.958;21.780;2023-04-15T06:45:08;15.39;58.06
63976;DHT22;50167;47.958;21.780;2023-04-15T06:47:35;14.71;60.04
63976;DHT22;50167;47.958;21.780;2023-04-15T06:50:01;14.17;61.52
63976;DHT22;50167;47.958;21.780;2023-04-15T06:52:28;13.84;63.31
63976;DHT22;50167;47.958;21.780;2023-04-15T06:54:55;14.56;65.31
63976;DHT22;50167;47.958;21.780;2023-04-15T06:57:21;15.88;62.32
63976;DHT22;50167;47.958;21.780;2023-04-15T07:00:00;16.64;60.02
63976;DHT22;50167;47.958;21.780;2023-04-15T07:02:26;17.37;57.70
63976;DHT22;50167;47.958;21.780;2023-04-15T07:09:22;16.28;58.31
63976;DHT22;50167;47.958;21.780;2023-04-15T07:12:40;15.96;60.95
63976;DHT22;50167;47.958;21.780;2023-04-15T07:15:25;15.61;59.49
63976;DHT22;50167;47.958;21.780;2023-04-15T07:17:54;15.43;61.07
63976;DHT22;50167;47.958;21.780;2023-04-15T07:20:24;15.15;61.12
63976;DHT22;50167;47.958;21.780;2023-04-15T07:22:55;14.85;61.07
63976;DHT22;50167;47.958;21.780;2023-04-15T07:25:24;14.51;61.61
63976;DHT22;50167;47.958;21.780;2023-04-15T07:27:52;14.29;61.79
63976;DHT22;50167;47.958;21.780;2023-04-15T07:30:19;14.05;61.70
63976;DHT22;50167;47.958;21.780;2023-04-15T07:32:45;13.84;62.65
63976;DHT22;50167;47.958;21.780;2023-04-15T07:35:11;14.71;64.76
63976;DHT22;50167;47.958;21.780;2023-04-15T07:37:38;16.30;62.03
63976;DHT22;50167;47.958;21.780;2023-04-15T07:40:06;17.50;57.19
63976;DHT22;50167;47.958;21.780;2023-04-15T07:42:34;17.70;54.02
63976;DHT22;50167;47.958;21.780;2023-04-15T07:45:00;17.32;52.42
63976;DHT22;50167;47.958;21.780;2023-04-15T07:47:27;17.01;52.19
63976;DHT22;50167;47.958;21.780;2023-04-15T07:49:53;16.84;52.81
63976;DHT22;50167;47.958;21.780;2023-04-15T07:52:19;16.68;52.34
63976;DHT22;50167;47.958;21.780;2023-04-15T07:54:45;16.49;54.49
63976;DHT22;50167;47.958;21.780;2023-04-15T07:57:11;16.46;55.51
63976;DHT22;50167;47.958;21.780;2023-04-15T07:59:38;16.40;54.86
63976;DHT22;50167;47.958;21.780;2023-04-15T08:02:04;16.33;55.25
63976;DHT22;50167;47.958;21.780;2023-04-15T08:04:30;16.23;54.67
63976;DHT22;50167;47.958;21.780;2023-04-15T08:07:00;16.08;53.19
63976;DHT22;50167;47.958;21.780;2023-04-15T08:09:26;15.84;54.43
63976;DHT22;50167;47.958;21.780;2023-04-15T08:11:52;15.67;55.19
63976;DHT22;50167;47.958;21.780;2023-04-15T08:14:19;15.64;57.14
63976;DHT22;50167;47.958;21.780;2023-04-15T08:16:45;15.67;54.25
63976;DHT22;50167;47.958;21.780;2023-04-15T08:19:11;15.64;54.99
63976;DHT22;50167;47.958;21.780;2023-04-15T08:21:37;15.63;54.48
63976;DHT22;50167;47.958;21.780;2023-04-15T08:24:05;15.65;53.40
63976;DHT22;50167;47.958;21.780;2023-04-15T08:26:31;15.77;54.77
63976;DHT22;50167;47.958;21.780;2023-04-15T08:28:58;15.84;55.21
63976;DHT22;50167;47.958;21.780;2023-04-15T08:31:26;16.01;53.81
63976;DHT22;50167;47.958;21.780;2023-04-15T08:33:55;16.16;54.35
63976;DHT22;50167;47.958;21.780;2023-04-15T08:36:22;16.18;53.75
63976;DHT22;50167;47.958;21.780;2023-04-15T08:38:49;16.13;53.34
63976;DHT22;50167;47.958;21.780;2023-04-15T08:41:24;16.15;53.30
63976;DHT22;50167;47.958;21.780;2023-04-15T08:44:06;16.26;53.80
63976;DHT22;50167;47.958;21.780;2023-04-15T08:46:33;16.46;52.33
63976;DHT22;50167;47.958;21.780;2023-04-15T08:49:03;16.57;50.59
63976;DHT22;50167;47.958;21.780;2023-04-15T08:51:30;16.59;52.15
63976;DHT22;50167;47.958;21.780;2023-04-15T08:53:57;16.68;52.65
63976;DHT22;50167;47.958;21.780;2023-04-15T08:56:41;16.84;53.31
63976;DHT22;50167;47.958;21.780;2023-04-15T08:59:08;17.02;52.09
63976;DHT22;50167;47.958;21.780;2023-04-15T09:01:37;17.18;53.52
63976;DHT22;50167;47.958;21.780;2023-04-15T09:04:04;17.27;51.30
63976;DHT22;50167;47.958;21.780;2023-04-15T09:06:33;17.36;51.67
63976;DHT22;50167;47.958;21.780;2023-04-15T09:08:59;17.42;51.95
63976;DHT22;50167;47.958;21.780;2023-04-15T09:11:26;17.46;50.97
63976;DHT22;50167;47.958;21.780;2023-04-15T09:13:52;17.64;51.40
63976;DHT22;50167;47.958;21.780;2023-04-15T09:16:18;17.90;49.62
63976;DHT22;50167;47.958;21.780;2023-04-15T09:18:45;17.93;50.19
63976;DHT22;50167;47.958;21.780;2023-04-15T09:21:15;17.91;50.60
63976;DHT22;50167;47.958;21.780;2023-04-15T09:24:00;17.78;50.34
63976;DHT22;50167;47.958;21.780;2023-04-15T09:26:35;17.57;45.62
63976;DHT22;50167;47.958;21.780;2023-04-15T09:29:09;17.19;48.92
63976;DHT22;50167;47.958;21.780;2023-04-15T09:31:39;16.91;50.42
63976;DHT22;50167;47.958;21.780;2023-04-15T09:34:06;16.80;51.43
63976;DHT22;50167;47.958;21.780;2023-04-15T09:36:56;16.77;51.89
63976;DHT22;50167;47.958;21.780;2023-04-15T09:39:20;17.07;52.45
63976;DHT22;50167;47.958;21.780;2023-04-15T09:41:51;17.43;51.16
63976;DHT22;50167;47.958;21.780;2023-04-15T09:44:52;17.66;49.02
63976;DHT22;50167;47.958;21.780;2023-04-15T09:47:33;17.74;47.42
63976;DHT22;50167;47.958;21.780;2023-04-15T09:50:00;17.81;48.57
63976;DHT22;50167;47.958;21.780;2023-04-15T09:52:27;17.95;48.35
63976;DHT22;50167;47.958;21.780;2023-04-15T09:54:56;17.88;47.97
63976;DHT22;50167;47.958;21.780;2023-04-15T09:57:22;17.73;47.49
63976;DHT22;50167;47.958;21.780;2023-04-15T09:59:50;17.63;47.03
63976;DHT22;50167;47.958;21.780;2023-04-15T10:02:18;17.63;46.08
63976;DHT22;50167;47.958;21.780;2023-04-15T10:04:47;17.43;45.48
63976;DHT22;50167;47.958;21.780;2023-04-15T10:07:14;17.08;44.95
63976;DHT22;50167;47.958;21.780;2023-04-15T10:09:45;16.75;46.97
63976;DHT22;50167;47.958;21.780;2023-04-15T10:12:12;16.50;47.13
63976;DHT22;50167;47.958;21.780;2023-04-15T10:14:39;16.28;48.05
63976;DHT22;50167;47.958;21.780;2023-04-15T10:17:10;16.07;49.24
63976;DHT22;50167;47.958;21.780;2023-04-15T10:19:40;15.81;48.74
63976;DHT22;50167;47.958;21.780;2023-04-15T10:22:07;15.57;50.31
63976;DHT22;50167;47.958;21.780;2023-04-15T10:24:34;15.33;53.06
63976;DHT22;50167;47.958;21.780;2023-04-15T10:27:03;15.06;53.20
63976;DHT22;50167;47.958;21.780;2023-04-15T10:29:31;14.78;54.45
63976;DHT22;50167;47.958;21.780;2023-04-15T10:31:58;14.57;56.22
63976;DHT22;50167;47.958;21.780;2023-04-15T10:34:26;14.34;58.05
63976;DHT22;50167;47.958;21.780;2023-04-15T10:37:03;14.15;60.43
63976;DHT22;50167;47.958;21.780;2023-04-15T10:39:41;13.95;58.13
63976;DHT22;50167;47.958;21.780;2023-04-15T10:42:15;13.77;59.86
63976;DHT22;50167;47.958;21.780;2023-04-15T10:44:50;13.61;61.70
63976;DHT22;50167;47.958;21.780;2023-04-15T10:47:19;13.58;62.13
63976;DHT22;50167;47.958;21.780;2023-04-15T10:49:58;14.56;64.25
63976;DHT22;50167;47.958;21.780;2023-04-15T10:52:27;16.35;61.58
63976;DHT22;50167;47.958;21.780;2023-04-15T10:57:39;16.71;53.77
63976;DHT22;50167;47.958;21.780;2023-04-15T11:00:14;16.20;55.85
63976;DHT22;50167;47.958;21.780;2023-04-15T11:02:51;16.07;57.25
63976;DHT22;50167;47.958;21.780;2023-04-15T11:05:19;16.19;57.12
63976;DHT22;50167;47.958;21.780;2023-04-15T11:07:54;16.41;57.53
63976;DHT22;50167;47.958;21.780;2023-04-15T11:13:04;17.25;54.01
63976;DHT22;50167;47.958;21.780;2023-04-15T11:15:40;17.52;53.02
63976;DHT22;50167;47.958;21.780;2023-04-15T11:20:46;17.43;53.70
63976;DHT22;50167;47.958;21.780;2023-04-15T11:23:14;17.47;53.95
63976;DHT22;50167;47.958;21.780;2023-04-15T11:25:42;17.56;53.85
63976;DHT22;50167;47.958;21.780;2023-04-15T11:28:09;17.66;53.29
63976;DHT22;50167;47.958;21.780;2023-04-15T11:30:37;17.77;49.06
63976;DHT22;50167;47.958;21.780;2023-04-15T11:33:07;17.85;51.72
63976;DHT22;50167;47.958;21.780;2023-04-15T11:35:34;18.00;45.35
63976;DHT22;50167;47.958;21.780;2023-04-15T11:38:05;18.05;45.52
63976;DHT22;50167;47.958;21.780;2023-04-15T11:40:35;17.97;46.23
63976;DHT22;50167;47.958;21.780;2023-04-15T11:43:14;17.83;43.97
63976;DHT22;50167;47.958;21.780;2023-04-15T11:45:59;17.63;45.66
63976;DHT22;50167;47.958;21.780;2023-04-15T11:48:32;17.54;45.19
63976;DHT22;50167;47.958;21.780;2023-04-15T11:51:04;17.42;44.99
63976;DHT22;50167;47.958;21.780;2023-04-15T11:53:43;17.21;45.58
63976;DHT22;50167;47.958;21.780;2023-04-15T11:56:20;16.98;45.38
63976;DHT22;50167;47.958;21.780;2023-04-15T11:58:51;16.75;46.73
63976;DHT22;50167;47.958;21.780;2023-04-15T12:01:18;16.53;46.44
63976;DHT22;50167;47.958;21.780;2023-04-15T12:03:45;16.35;46.10
63976;DHT22;50167;47.958;21.780;2023-04-15T12:06:30;16.29;45.78
63976;DHT22;50167;47.958;21.780;2023-04-15T12:11:40;16.95;44.88
63976;DHT22;50167;47.958;21.780;2023-04-15T12:14:28;17.35;46.68
63976;DHT22;50167;47.958;21.780;2023-04-15T12:17:02;17.73;45.08
63976;DHT22;50167;47.958;21.780;2023-04-15T12:19:37;17.90;40.84
63976;DHT22;50167;47.958;21.780;2023-04-15T12:22:10;17.88;40.65
63976;DHT22;50167;47.958;21.780;2023-04-15T12:24:37;17.88;41.33
63976;DHT22;50167;47.958;21.780;2023-04-15T12:27:06;18.21;43.21
63976;DHT22;50167;47.958;21.780;2023-04-15T12:29:35;18.77;41.76
63976;DHT22;50167;47.958;21.780;2023-04-15T12:34:43;20.10;38.95
63976;DHT22;50167;47.958;21.780;2023-04-15T12:37:11;20.84;38.03
63976;DHT22;50167;47.958;21.780;2023-04-15T12:39:42;21.49;36.70
63976;DHT22;50167;47.958;21.780;2023-04-15T12:42:10;22.06;34.47
63976;DHT22;50167;47.958;21.780;2023-04-15T12:44:37;21.96;34.50
63976;DHT22;50167;47.958;21.780;2023-04-15T12:47:04;21.96;35.41
63976;DHT22;50167;47.958;21.780;2023-04-15T12:49:32;22.44;35.78
63976;DHT22;50167;47.958;21.780;2023-04-15T12:52:00;22.33;35.24
63976;DHT22;50167;47.958;21.780;2023-04-15T12:54:27;21.70;37.43
63976;DHT22;50167;47.958;21.780;2023-04-15T12:56:54;21.28;35.38
63976;DHT22;50167;47.958;21.780;2023-04-15T12:59:21;20.59;36.69
63976;DHT22;50167;47.958;21.780;2023-04-15T13:01:49;20.10;37.58
63976;DHT22;50167;47.958;21.780;2023-04-15T13:04:15;20.48;37.57
63976;DHT22;50167;47.958;21.780;2023-04-15T13:06:42;20.87;37.42
63976;DHT22;50167;47.958;21.780;2023-04-15T13:09:09;21.57;36.98
63976;DHT22;50167;47.958;21.780;2023-04-15T13:15:35;22.78;32.80
63976;DHT22;50167;47.958;21.780;2023-04-15T13:18:06;22.98;33.59
63976;DHT22;50167;47.958;21.780;2023-04-15T13:20:32;23.32;31.60
63976;DHT22;50167;47.958;21.780;2023-04-15T13:22:59;23.37;33.04
63976;DHT22;50167;47.958;21.780;2023-04-15T13:25:25;23.71;31.17
63976;DHT22;50167;47.958;21.780;2023-04-15T13:27:52;24.05;32.83
63976;DHT22;50167;47.958;21.780;2023-04-15T13:30:19;24.02;31.29
63976;DHT22;50167;47.958;21.780;2023-04-15T13:32:45;23.36;32.05
63976;DHT22;50167;47.958;21.780;2023-04-15T13:35:11;22.81;32.81
63976;DHT22;50167;47.958;21.780;2023-04-15T13:37:37;22.06;34.09
63976;DHT22;50167;47.958;21.780;2023-04-15T13:40:05;21.20;36.02
63976;DHT22;50167;47.958;21.780;2023-04-15T13:42:32;20.48;35.63
63976;DHT22;50167;47.958;21.780;2023-04-15T13:44:59;19.76;35.56
63976;DHT22;50167;47.958;21.780;2023-04-15T13:47:25;19.04;37.49
63976;DHT22;50167;47.958;21.780;2023-04-15T13:49:52;18.56;39.08
63976;DHT22;50167;47.958;21.780;2023-04-15T13:52:20;18.18;40.31
63976;DHT22;50167;47.958;21.780;2023-04-15T13:54:46;17.94;41.06
63976;DHT22;50167;47.958;21.780;2023-04-15T13:57:13;17.81;42.09
63976;DHT22;50167;47.958;21.780;2023-04-15T13:59:39;17.70;42.81
63976;DHT22;50167;47.958;21.780;2023-04-15T14:02:05;17.64;42.30
63976;DHT22;50167;47.958;21.780;2023-04-15T14:04:32;17.52;41.37
63976;DHT22;50167;47.958;21.780;2023-04-15T14:06:58;17.45;41.39
63976;DHT22;50167;47.958;21.780;2023-04-15T14:09:24;17.33;41.51
63976;DHT22;50167;47.958;21.780;2023-04-15T14:11:50;17.15;42.10
63976;DHT22;50167;47.958;21.780;2023-04-15T14:14:17;16.97;42.53
63976;DHT22;50167;47.958;21.780;2023-04-15T14:16:43;16.80;42.59
63976;DHT22;50167;47.958;21.780;2023-04-15T14:19:10;16.56;45.85
63976;DHT22;50167;47.958;21.780;2023-04-15T14:21:36;16.33;46.99
63976;DHT22;50167;47.958;21.780;2023-04-15T14:24:02;16.05;48.27
63976;DHT22;50167;47.958;21.780;2023-04-15T14:26:29;15.81;49.27
63976;DHT22;50167;47.958;21.780;2023-04-15T14:28:55;15.64;50.97
63976;DHT22;50167;47.958;21.780;2023-04-15T14:31:21;15.58;51.39
63976;DHT22;50167;47.958;21.780;2023-04-15T14:33:47;15.57;51.72
63976;DHT22;50167;47.958;21.780;2023-04-15T14:36:14;15.63;50.40
63976;DHT22;50167;47.958;21.780;2023-04-15T14:38:41;15.63;50.38
63976;DHT22;50167;47.958;21.780;2023-04-15T14:41:08;15.54;50.43
63976;DHT22;50167;47.958;21.780;2023-04-15T14:43:36;15.44;50.69
63976;DHT22;50167;47.958;21.780;2023-04-15T14:46:03;15.32;50.43
63976;DHT22;50167;47.958;21.780;2023-04-15T14:48:30;15.27;50.70
63976;DHT22;50167;47.958;21.780;2023-04-15T14:50:58;15.33;50.55
63976;DHT22;50167;47.958;21.780;2023-04-15T14:53:24;15.37;50.83
63976;DHT22;50167;47.958;21.780;2023-04-15T14:55:50;15.30;51.42
63976;DHT22;50167;47.958;21.780;2023-04-15T14:58:18;15.15;51.48
63976;DHT22;50167;47.958;21.780;2023-04-15T15:00:45;14.88;52.50
63976;DHT22;50167;47.958;21.780;2023-04-15T15:03:15;14.61;53.64
63976;DHT22;50167;47.958;21.780;2023-04-15T15:05:44;14.34;55.10
63976;DHT22;50167;47.958;21.780;2023-04-15T15:08:11;14.17;55.08
63976;DHT22;50167;47.958;21.780;2023-04-15T15:10:39;13.89;56.46
63976;DHT22;50167;47.958;21.780;2023-04-15T15:13:08;13.71;56.72
63976;DHT22;50167;47.958;21.780;2023-04-15T15:15:36;13.64;57.31
63976;DHT22;50167;47.958;21.780;2023-04-15T15:18:03;13.58;56.33
63976;DHT22;50167;47.958;21.780;2023-04-15T15:20:30;13.55;55.41
63976;DHT22;50167;47.958;21.780;2023-04-15T15:22:56;13.55;55.64
63976;DHT22;50167;47.958;21.780;2023-04-15T15:25:22;13.57;55.98
63976;DHT22;50167;47.958;21.780;2023-04-15T15:27:48;13.60;55.28
63976;DHT22;50167;47.958;21.780;2023-04-15T15:30:15;13.60;55.03
63976;DHT22;50167;47.958;21.780;2023-04-15T15:32:42;13.61;54.56
63976;DHT22;50167;47.958;21.780;2023-04-15T15:35:09;13.60;54.30
63976;DHT22;50167;47.958;21.780;2023-04-15T15:37:36;13.61;54.39
63976;DHT22;50167;47.958;21.780;2023-04-15T15:40:06;13.57;54.77
63976;DHT22;50167;47.958;21.780;2023-04-15T15:42:33;13.64;54.59
63976;DHT22;50167;47.958;21.780;2023-04-15T15:44:59;13.68;54.88
63976;DHT22;50167;47.958;21.780;2023-04-15T15:47:26;13.74;54.63
63976;DHT22;50167;47.958;21.780;2023-04-15T15:49:53;13.81;54.80
63976;DHT22;50167;47.958;21.780;2023-04-15T15:52:20;13.82;54.50